Time;durP1;ratioP1;P1;durP2;ratioP2;P2;SDS_P1;SDS_P2;PMS_P1;PMS_P2;Temp;Humidity;BMP_temperature;BMP_pressure;BME280_temperature;BME280_humidity;BME280_pressure;Samples;Min_cycle;Max_cycle;Signal;HPM_P1;HPM_P2
2021/12/01 00:02:08;;;;;;;1.30;0.63;;;9.50;99.90;;;;;;5010888;28;20174;-73
2021/12/01 00:04:34;;;;;;;1.43;0.60;;;9.50;99.90;;;;;;5011195;28;20203;-72
2021/12/01 00:07:00;;;;;;;1.40;0.87;;;9.50;99.90;;;;;;4994048;28;20182;-72
2021/12/01 00:09:25;;;;;;;1.00;0.60;;;9.60;99.90;;;;;;5011149;28;20245;-73
2021/12/01 00:11:51;;;;;;;1.37;0.60;;;9.60;99.90;;;;;;5011055;28;20259;-73
2021/12/01 00:14:23;;;;;;;1.10;0.60;;;9.60;99.90;;;;;;4993648;28;20249;-72
2021/12/01 00:16:49;;;;;;;1.13;0.67;;;9.60;99.90;;;;;;5011404;28;20163;-73
2021/12/01 00:19:15;;;;;;;1.07;0.50;;;9.60;99.90;;;;;;5011651;28;20934;-74
2021/12/01 00:21:40;;;;;;;2.03;0.60;;;9.60;99.60;;;;;;5011454;28;20171;-73
2021/12/01 00:24:06;;;;;;;1.43;0.50;;;9.60;99.50;;;;;;5009711;28;20206;-74
2021/12/01 00:26:32;;;;;;;1.00;0.60;;;9.60;99.50;;;;;;5009815;28;20672;-73
2021/12/01 00:28:57;;;;;;;0.80;0.40;;;9.60;99.20;;;;;;5010861;28;20167;-73
2021/12/01 00:31:23;;;;;;;9.10;0.67;;;9.70;98.90;;;;;;5010720;28;20209;-73
2021/12/01 00:33:49;;;;;;;0.90;0.70;;;9.70;98.90;;;;;;5010591;28;20191;-73
2021/12/01 00:36:15;;;;;;;1.50;0.60;;;9.70;98.80;;;;;;5009414;28;20198;-73
2021/12/01 00:38:42;;;;;;;0.70;0.40;;;9.70;98.90;;;;;;5010641;28;20172;-73
2021/12/01 00:41:12;;;;;;;1.33;0.70;;;9.70;98.80;;;;;;5009484;28;20468;-73
2021/12/01 00:43:41;;;;;;;1.23;0.60;;;9.70;98.60;;;;;;5009066;28;20461;-73
2021/12/01 00:46:55;;;;;;;1.20;0.53;;;9.70;98.60;;;;;;5010757;28;20406;-72
2021/12/01 00:48:55;;;;;;;1.10;0.70;;;9.70;98.40;;;;;;5002926;28;20449;-73
2021/12/01 00:51:20;;;;;;;1.20;0.53;;;9.70;98.30;;;;;;5009440;28;20410;-73
2021/12/01 00:53:46;;;;;;;1.73;0.80;;;9.70;98.20;;;;;;4993377;28;20195;-72
2021/12/01 00:56:12;;;;;;;1.20;0.67;;;9.70;98.20;;;;;;5014450;28;20257;-73
2021/12/01 00:58:38;;;;;;;1.00;0.70;;;9.70;98.20;;;;;;5012732;28;20175;-73
2021/12/01 01:01:03;;;;;;;1.30;0.60;;;9.70;98.10;;;;;;5014550;28;20413;-73
2021/12/01 01:03:31;;;;;;;0.90;0.63;;;9.70;98.10;;;;;;5014056;28;20203;-73
2021/12/01 01:05:57;;;;;;;1.00;0.60;;;9.70;98.10;;;;;;5014489;28;20526;-73
2021/12/01 01:08:23;;;;;;;1.30;0.53;;;9.70;97.70;;;;;;5014366;28;20402;-73
2021/12/01 01:16:23;;;;;;;1.30;1.00;;;9.80;97.00;;;;;;5014306;28;20501;-73
2021/12/01 01:18:59;;;;;;;1.23;0.50;;;9.80;97.00;;;;;;5013919;28;20425;-73
2021/12/01 01:21:28;;;;;;;1.10;0.50;;;9.80;96.60;;;;;;5014046;28;20950;-73
2021/12/01 01:23:54;;;;;;;0.80;0.50;;;9.80;96.70;;;;;;5013878;28;20489;-73
2021/12/01 01:26:21;;;;;;;0.90;0.50;;;9.80;96.00;;;;;;5014109;28;20405;-72
2021/12/01 01:28:47;;;;;;;1.13;0.60;;;9.80;95.80;;;;;;5013658;28;20476;-72
2021/12/01 01:31:13;;;;;;;0.90;0.50;;;9.90;95.70;;;;;;5013903;28;20442;-72
2021/12/01 01:33:40;;;;;;;1.03;0.70;;;9.80;95.70;;;;;;5035555;23;20352;-74
2021/12/01 01:36:06;;;;;;;1.00;0.60;;;9.80;95.60;;;;;;5036988;28;20409;-74
2021/12/01 01:38:33;;;;;;;0.83;0.57;;;9.80;95.60;;;;;;5036255;28;20504;-73
2021/12/01 01:41:05;;;;;;;1.00;0.60;;;9.80;95.60;;;;;;5034903;28;20644;-72
2021/12/01 01:43:33;;;;;;;2.17;0.70;;;9.80;95.40;;;;;;5036157;28;20942;-73
2021/12/01 01:45:59;;;;;;;0.90;0.60;;;9.80;95.30;;;;;;5034382;28;20425;-72
2021/12/01 01:48:32;;;;;;;0.93;0.50;;;9.80;95.40;;;;;;5037483;28;20467;-73
2021/12/01 01:51:05;;;;;;;1.00;0.60;;;9.80;95.10;;;;;;5040912;28;20242;-73
2021/12/01 01:53:33;;;;;;;0.90;0.60;;;9.80;95.10;;;;;;5037599;28;20418;-72
2021/12/01 01:56:03;;;;;;;0.87;0.50;;;9.80;95.30;;;;;;5036582;28;20409;-73
2021/12/01 01:58:29;;;;;;;1.10;0.63;;;9.80;95.40;;;;;;5036385;28;20493;-71
2021/12/01 02:01:08;;;;;;;1.83;0.70;;;9.70;95.30;;;;;;5035013;28;20478;-73
2021/12/01 02:03:43;;;;;;;0.80;0.50;;;9.70;95.40;;;;;;5038649;28;20336;-72
2021/12/01 02:06:11;;;;;;;0.70;0.50;;;9.70;95.60;;;;;;5041882;28;20420;-73
2021/12/01 02:08:40;;;;;;;1.20;0.80;;;9.70;95.70;;;;;;5037784;28;20412;-73
2021/12/01 02:11:11;;;;;;;1.00;0.70;;;9.70;95.70;;;;;;5017979;28;20405;-73
2021/12/01 02:13:38;;;;;;;1.10;0.77;;;9.60;95.50;;;;;;5037264;28;20463;-74
2021/12/01 02:16:05;;;;;;;0.80;0.50;;;9.60;95.60;;;;;;5045386;28;20421;-71
2021/12/01 02:18:31;;;;;;;1.13;0.60;;;9.60;95.60;;;;;;5043151;28;20417;-73
2021/12/01 02:21:10;;;;;;;2.73;0.60;;;9.60;95.90;;;;;;5039000;28;20412;-73
2021/12/01 02:23:38;;;;;;;2.13;1.13;;;9.60;95.60;;;;;;5034917;28;20630;-71
2021/12/01 02:26:05;;;;;;;1.33;0.70;;;9.50;95.60;;;;;;5036364;28;20405;-71
2021/12/01 02:28:31;;;;;;;2.30;0.80;;;9.50;95.80;;;;;;5036681;28;20423;-73
2021/12/01 02:30:58;;;;;;;1.10;0.67;;;9.50;95.70;;;;;;5043426;28;20782;-72
2021/12/01 02:33:25;;;;;;;3.77;0.80;;;9.50;95.80;;;;;;5037726;28;20416;-73
2021/12/01 02:35:52;;;;;;;1.07;0.60;;;9.40;95.90;;;;;;5035728;28;20416;-73
2021/12/01 02:38:19;;;;;;;1.43;0.70;;;9.40;95.90;;;;;;5040843;28;20452;-73
2021/12/01 02:40:46;;;;;;;1.00;0.60;;;9.40;95.90;;;;;;5042202;28;20421;-72
2021/12/01 02:43:12;;;;;;;1.37;0.97;;;9.40;95.80;;;;;;5044657;28;20451;-73
2021/12/01 02:45:39;;;;;;;4.53;2.20;;;9.40;96.00;;;;;;5046303;28;20426;-72
2021/12/01 02:48:11;;;;;;;1.73;0.90;;;9.30;95.90;;;;;;5036542;28;20409;-72
2021/12/01 02:50:37;;;;;;;3.80;0.90;;;9.30;95.80;;;;;;5035418;28;20437;-73
2021/12/01 02:53:03;;;;;;;5.13;0.97;;;9.30;96.00;;;;;;5035074;28;20428;-72
2021/12/01 02:55:31;;;;;;;2.20;1.17;;;9.30;95.90;;;;;;5035281;28;20186;-72
2021/12/01 02:57:59;;;;;;;1.10;0.80;;;9.30;95.70;;;;;;5036683;28;20169;-73
2021/12/01 03:00:26;;;;;;;2.20;1.00;;;9.20;95.40;;;;;;5035702;28;20801;-72
2021/12/01 03:02:53;;;;;;;2.03;0.97;;;9.20;95.40;;;;;;5036030;28;20416;-71
2021/12/01 03:05:19;;;;;;;2.27;1.07;;;9.20;95.40;;;;;;5037212;28;20429;-73
2021/12/01 03:07:46;;;;;;;2.13;1.00;;;9.20;95.10;;;;;;5036085;28;20942;-72
2021/12/01 03:10:12;;;;;;;6.07;1.73;;;9.20;94.70;;;;;;5034568;28;20398;-72
2021/12/01 03:12:40;;;;;;;1.93;1.30;;;9.20;94.70;;;;;;5034777;28;20440;-72
2021/12/01 03:15:11;;;;;;;2.10;1.27;;;9.20;94.30;;;;;;5035724;28;20973;-74
2021/12/01 03:17:37;;;;;;;2.03;1.20;;;9.10;94.30;;;;;;5035454;28;20416;-72
2021/12/01 03:20:07;;;;;;;3.53;1.33;;;9.10;94.20;;;;;;5035974;28;20763;-72
2021/12/01 03:22:33;;;;;;;3.60;1.67;;;9.10;94.30;;;;;;5040615;28;20419;-74
2021/12/01 03:24:59;;;;;;;2.70;1.53;;;9.10;94.30;;;;;;5042961;28;20503;-74
2021/12/01 03:27:25;;;;;;;2.80;1.47;;;9.10;94.40;;;;;;5041146;28;20173;-73
2021/12/01 03:29:52;;;;;;;2.10;1.40;;;9.10;94.00;;;;;;5038711;28;20162;-73
2021/12/01 03:32:20;;;;;;;2.67;1.60;;;9.10;93.80;;;;;;5040104;28;20423;-72
2021/12/01 03:34:46;;;;;;;2.70;1.43;;;9.10;93.90;;;;;;5037986;28;20214;-74
2021/12/01 03:37:12;;;;;;;4.67;1.77;;;9.10;93.60;;;;;;5034811;28;20406;-74
2021/12/01 03:39:38;;;;;;;2.23;1.73;;;9.10;93.80;;;;;;5033032;28;20493;-74
2021/12/01 03:42:05;;;;;;;4.10;1.90;;;9.10;93.90;;;;;;5033056;28;20178;-73
2021/12/01 03:44:32;;;;;;;6.70;5.93;;;9.10;93.50;;;;;;5033606;28;20460;-72
2021/12/01 03:46:58;;;;;;;3.40;2.00;;;9.10;93.70;;;;;;5033641;28;20417;-72
2021/12/01 03:49:24;;;;;;;4.70;2.27;;;9.10;93.70;;;;;;5034240;28;20409;-72
2021/12/01 03:51:59;;;;;;;4.00;1.43;;;9.00;93.80;;;;;;5033546;28;20444;-73
2021/12/01 03:54:26;;;;;;;2.60;1.73;;;9.00;93.60;;;;;;5033634;28;20926;-74
2021/12/01 03:56:52;;;;;;;2.67;1.70;;;9.00;93.50;;;;;;5033343;28;20547;-73
2021/12/01 03:59:17;;;;;;;2.60;1.80;;;9.00;93.60;;;;;;5033480;28;20171;-73
2021/12/01 04:01:43;;;;;;;2.90;2.10;;;9.00;93.60;;;;;;5031703;28;20174;-73
2021/12/01 04:04:09;;;;;;;3.50;1.97;;;9.00;93.60;;;;;;5031596;28;20257;-72
2021/12/01 04:06:35;;;;;;;3.10;1.67;;;9.00;93.70;;;;;;5032775;28;20166;-73
2021/12/01 04:09:03;;;;;;;2.53;1.87;;;9.00;93.70;;;;;;5033200;28;20190;-73
2021/12/01 04:11:29;;;;;;;2.90;1.93;;;9.00;93.50;;;;;;5032971;28;20764;-72
2021/12/01 04:13:56;;;;;;;5.33;2.10;;;9.00;93.70;;;;;;5032256;28;20425;-73
2021/12/01 04:16:23;;;;;;;5.53;2.40;;;8.90;93.80;;;;;;5032524;28;20245;-72
2021/12/01 04:18:48;;;;;;;3.63;2.17;;;8.90;94.00;;;;;;5032738;28;20432;-72
2021/12/01 04:21:15;;;;;;;3.87;2.70;;;8.90;94.00;;;;;;5031521;28;20425;-73
2021/12/01 04:23:41;;;;;;;3.17;2.10;;;8.90;94.10;;;;;;5032272;28;20205;-72
2021/12/01 04:26:12;;;;;;;10.07;3.27;;;8.90;94.00;;;;;;5032555;28;20409;-73
2021/12/01 04:28:37;;;;;;;3.57;2.20;;;8.90;94.00;;;;;;5031513;28;20189;-73
2021/12/01 04:31:03;;;;;;;8.27;3.20;;;8.90;93.90;;;;;;5032394;28;20914;-72
2021/12/01 04:33:29;;;;;;;3.63;2.80;;;8.90;93.90;;;;;;5032083;28;20314;-72
2021/12/01 04:35:55;;;;;;;4.23;3.70;;;8.90;93.80;;;;;;5030847;28;20185;-73
2021/12/01 04:38:21;;;;;;;4.90;2.90;;;8.90;93.90;;;;;;5032609;28;20163;-72
2021/12/01 04:40:47;;;;;;;3.77;2.77;;;8.90;93.90;;;;;;5032975;28;20937;-72
2021/12/01 04:43:13;;;;;;;4.90;3.00;;;8.90;93.90;;;;;;5032210;28;20455;-72
2021/12/01 04:45:42;;;;;;;3.90;2.13;;;8.90;93.50;;;;;;5032984;28;20183;-73
2021/12/01 04:48:08;;;;;;;4.37;2.67;;;8.90;93.50;;;;;;5032037;28;20167;-72
2021/12/01 04:50:34;;;;;;;3.73;3.00;;;8.90;93.60;;;;;;5032361;28;20397;-71
2021/12/01 04:53:00;;;;;;;3.60;2.23;;;8.90;93.60;;;;;;5032412;28;20416;-74
2021/12/01 04:55:26;;;;;;;9.57;3.37;;;8.90;93.30;;;;;;5032233;28;20193;-71
2021/12/01 04:57:52;;;;;;;5.50;3.10;;;8.90;93.40;;;;;;5031596;28;20413;-72
2021/12/01 05:00:21;;;;;;;3.03;2.70;;;8.90;93.50;;;;;;5031418;28;20485;-73
2021/12/01 05:02:47;;;;;;;3.30;2.47;;;8.90;93.60;;;;;;5031032;28;20417;-73
2021/12/01 05:05:13;;;;;;;4.03;2.63;;;8.90;93.50;;;;;;5030787;28;20810;-72
2021/12/01 05:07:40;;;;;;;4.17;3.53;;;8.90;93.60;;;;;;5032137;28;20448;-73
2021/12/01 05:10:06;;;;;;;3.20;2.90;;;8.80;93.60;;;;;;5032508;28;20779;-73
2021/12/01 05:12:34;;;;;;;4.90;3.67;;;8.80;93.60;;;;;;5032628;28;20782;-73
2021/12/01 05:14:59;;;;;;;4.03;3.33;;;8.80;93.30;;;;;;5030522;28;20440;-73
2021/12/01 05:17:25;;;;;;;5.10;2.60;;;8.80;93.20;;;;;;5031814;28;20471;-71
2021/12/01 05:19:51;;;;;;;4.00;2.70;;;8.80;93.40;;;;;;5031664;28;20175;-72
2021/12/01 05:22:17;;;;;;;5.90;2.70;;;8.70;93.40;;;;;;5031343;28;20175;-72
2021/12/01 05:24:42;;;;;;;4.57;2.20;;;8.70;93.30;;;;;;5031320;28;20202;-73
2021/12/01 05:27:08;;;;;;;4.63;2.47;;;8.70;93.30;;;;;;5031644;28;20869;-72
2021/12/01 05:29:34;;;;;;;2.00;1.70;;;8.70;93.40;;;;;;5031491;28;20167;-72
2021/12/01 05:32:00;;;;;;;2.23;1.67;;;8.60;93.30;;;;;;5031319;28;20163;-72
2021/12/01 05:34:25;;;;;;;6.43;2.40;;;8.60;93.20;;;;;;5031486;28;20206;-73
2021/12/01 05:36:53;;;;;;;3.43;1.60;;;8.60;93.30;;;;;;5031667;28;20186;-73
2021/12/01 05:39:19;;;;;;;4.37;1.87;;;8.60;93.30;;;;;;5031639;28;20775;-72
2021/12/01 05:41:45;;;;;;;2.57;1.93;;;8.60;93.30;;;;;;5034799;28;20528;-73
2021/12/01 05:44:11;;;;;;;2.30;1.77;;;8.70;93.40;;;;;;5035407;28;20205;-71
2021/12/01 05:46:37;;;;;;;2.40;1.63;;;8.70;93.40;;;;;;5027808;28;20250;-72
2021/12/01 05:49:04;;;;;;;6.10;2.30;;;8.70;93.50;;;;;;5015672;28;20955;-73
2021/12/01 05:51:30;;;;;;;3.77;1.90;;;8.70;93.60;;;;;;5014052;28;20170;-72
2021/12/01 05:53:55;;;;;;;2.93;2.30;;;8.70;93.70;;;;;;5012477;28;20422;-73
2021/12/01 05:56:21;;;;;;;1.77;1.43;;;8.60;93.60;;;;;;5012399;28;20628;-72
2021/12/01 05:58:47;;;;;;;3.80;1.77;;;8.60;93.80;;;;;;5013286;28;20171;-73
2021/12/01 06:01:13;;;;;;;4.77;1.47;;;8.60;93.90;;;;;;5013846;28;20183;-73
2021/12/01 06:03:39;;;;;;;2.30;1.67;;;8.60;94.00;;;;;;5013171;28;20205;-72
2021/12/01 06:06:06;;;;;;;3.10;1.53;;;8.60;94.30;;;;;;5013626;28;20540;-72
2021/12/01 06:08:32;;;;;;;1.50;1.20;;;8.60;94.40;;;;;;5013725;28;20907;-72
2021/12/01 06:10:58;;;;;;;3.50;1.73;;;8.60;94.40;;;;;;5018875;28;20410;-73
2021/12/01 06:13:24;;;;;;;3.20;1.60;;;8.50;94.50;;;;;;5025416;28;20420;-73
2021/12/01 06:15:51;;;;;;;2.27;1.60;;;8.50;94.60;;;;;;5015934;28;20749;-73
2021/12/01 06:18:17;;;;;;;2.40;1.63;;;8.60;94.60;;;;;;5021823;28;20922;-74
2021/12/01 06:20:43;;;;;;;2.70;1.53;;;8.60;94.60;;;;;;5034574;28;20437;-73
2021/12/01 06:23:09;;;;;;;2.40;1.40;;;8.60;94.30;;;;;;5037602;28;20798;-72
2021/12/01 06:25:35;;;;;;;1.70;1.13;;;8.60;94.40;;;;;;5032357;28;20474;-74
2021/12/01 06:28:01;;;;;;;2.20;1.20;;;8.60;94.30;;;;;;5030827;28;20174;-73
2021/12/01 06:30:31;;;;;;;1.57;1.17;;;8.60;94.20;;;;;;5033318;28;20488;-73
2021/12/01 06:32:57;;;;;;;1.40;1.17;;;8.60;94.00;;;;;;5032592;28;20417;-75
2021/12/01 06:35:23;;;;;;;3.07;1.53;;;8.60;94.10;;;;;;5033440;28;20483;-72
2021/12/01 06:37:50;;;;;;;2.40;1.43;;;8.70;94.00;;;;;;5019851;28;20168;-73
2021/12/01 06:40:17;;;;;;;4.80;1.67;;;8.70;93.90;;;;;;5023717;28;20417;-75
2021/12/01 06:42:43;;;;;;;1.63;1.10;;;8.70;93.50;;;;;;5016803;28;20445;-73
2021/12/01 06:45:10;;;;;;;2.37;1.30;;;8.70;93.60;;;;;;4992130;28;20561;-75
2021/12/01 06:47:37;;;;;;;1.70;1.30;;;8.70;93.50;;;;;;5004617;28;20597;-72
2021/12/01 06:50:04;;;;;;;2.80;1.20;;;8.70;93.10;;;;;;5007574;28;20513;-74
2021/12/01 06:52:30;;;;;;;1.80;1.23;;;8.80;93.20;;;;;;5020383;28;20457;-70
2021/12/01 06:54:57;;;;;;;1.67;1.23;;;8.80;93.00;;;;;;5011210;28;20422;-72
2021/12/01 06:57:23;;;;;;;1.40;0.90;;;8.80;93.10;;;;;;4993696;28;20796;-73
2021/12/01 06:59:49;;;;;;;3.67;1.40;;;8.80;93.00;;;;;;4993278;28;20426;-72
2021/12/01 07:02:16;;;;;;;1.20;0.90;;;8.80;93.00;;;;;;4994827;28;20789;-71
2021/12/01 07:04:41;;;;;;;1.10;0.80;;;8.80;92.80;;;;;;4993210;28;20324;-72
2021/12/01 07:07:08;;;;;;;3.13;1.10;;;8.80;93.00;;;;;;4996089;28;20529;-71
2021/12/01 07:09:34;;;;;;;1.20;0.80;;;8.90;92.30;;;;;;4996062;28;20498;-71
2021/12/01 07:12:00;;;;;;;1.70;0.80;;;8.90;92.50;;;;;;4991598;28;20195;-71
2021/12/01 07:14:25;;;;;;;2.50;1.03;;;8.90;92.30;;;;;;4993800;28;20188;-73
2021/12/01 07:16:51;;;;;;;2.03;1.00;;;8.90;92.10;;;;;;5006939;28;20183;-71
2021/12/01 07:19:17;;;;;;;2.67;1.00;;;8.90;92.10;;;;;;4993620;28;20210;-73
2021/12/01 07:21:42;;;;;;;1.90;1.00;;;8.90;92.20;;;;;;4993145;28;20541;-71
2021/12/01 07:24:08;;;;;;;2.20;1.00;;;8.90;92.00;;;;;;4992967;28;20716;-74
2021/12/01 07:26:34;;;;;;;2.00;1.10;;;9.00;91.80;;;;;;4992537;28;20164;-71
2021/12/01 07:29:00;;;;;;;1.53;1.13;;;9.00;91.80;;;;;;4992744;28;20175;-70
2021/12/01 07:31:25;;;;;;;2.30;1.07;;;9.00;91.70;;;;;;4991316;28;20826;-71
2021/12/01 07:33:51;;;;;;;2.70;1.50;;;9.00;91.80;;;;;;4992902;28;20446;-71
2021/12/01 07:36:17;;;;;;;4.27;1.70;;;9.10;91.90;;;;;;4990995;28;20183;-71
2021/12/01 07:38:43;;;;;;;4.27;1.83;;;9.10;91.70;;;;;;4992496;28;20172;-76
2021/12/01 07:41:09;;;;;;;1.33;0.90;;;9.10;91.70;;;;;;4992769;28;20406;-73
2021/12/01 07:43:35;;;;;;;3.93;2.10;;;9.10;91.60;;;;;;4992682;28;20458;-71
2021/12/01 07:46:01;;;;;;;7.90;1.73;;;9.10;91.60;;;;;;4992303;28;20453;-74
2021/12/01 07:48:28;;;;;;;3.67;1.83;;;9.10;91.50;;;;;;4991317;28;20187;-71
2021/12/01 07:50:55;;;;;;;6.07;1.63;;;9.10;91.40;;;;;;4992338;28;20410;-74
2021/12/01 07:53:21;;;;;;;9.67;5.10;;;9.20;91.50;;;;;;4992572;28;20427;-73
2021/12/01 07:55:47;;;;;;;2.37;1.10;;;9.20;91.30;;;;;;4991328;28;20415;-72
2021/12/01 07:58:13;;;;;;;2.20;1.20;;;9.20;91.20;;;;;;4992729;28;20430;-72
2021/12/01 08:00:38;;;;;;;3.00;1.50;;;9.30;91.30;;;;;;4992182;28;20174;-71
2021/12/01 08:03:04;;;;;;;2.97;1.50;;;9.30;91.10;;;;;;4991187;28;20172;-71
2021/12/01 08:05:31;;;;;;;2.93;1.53;;;9.30;91.10;;;;;;4992251;28;20242;-72
2021/12/01 08:07:56;;;;;;;4.03;1.33;;;9.30;91.10;;;;;;4992306;28;20504;-70
2021/12/01 08:10:22;;;;;;;2.83;1.50;;;9.30;90.80;;;;;;4991979;28;20446;-70
2021/12/01 08:12:48;;;;;;;2.70;1.17;;;9.30;90.80;;;;;;4992289;28;20195;-70
2021/12/01 08:15:14;;;;;;;2.03;1.00;;;9.30;90.80;;;;;;4992186;28;20188;-71
2021/12/01 08:17:40;;;;;;;2.20;1.20;;;9.30;90.70;;;;;;4992337;28;20516;-73
2021/12/01 08:20:06;;;;;;;4.97;2.00;;;9.40;90.80;;;;;;4991767;28;20409;-72
2021/12/01 08:22:32;;;;;;;6.33;2.10;;;9.40;90.70;;;;;;4990932;28;20445;-73
2021/12/01 08:24:57;;;;;;;2.63;1.60;;;9.40;90.70;;;;;;4990509;28;20498;-74
2021/12/01 08:28:02;;;;;;;4.27;2.47;;;9.40;90.70;;;;;;5030836;23;20246;-78
2021/12/01 08:31:31;;;;;;;;;;;;;;;;;;;;;
2021/12/01 08:38:02;;;;;;;3.87;1.20;;;9.40;90.70;;;;;;4989001;28;20509;-76
2021/12/01 08:41:49;;;;;;;6.50;2.30;;;9.50;90.50;;;;;;4990926;28;20507;-77
2021/12/01 08:45:05;;;;;;;3.50;1.40;;;9.50;90.60;;;;;;4915821;28;20494;-78
2021/12/01 08:48:07;;;;;;;3.17;1.20;;;9.50;90.50;;;;;;4956282;28;20431;-78
2021/12/01 08:54:33;;;;;;;1.70;0.90;;;9.60;90.70;;;;;;4992427;28;20474;-78
2021/12/01 09:01:13;;;;;;;1.67;0.80;;;9.60;90.80;;;;;;4990239;28;20501;-78
2021/12/01 09:04:21;;;;;;;1.70;0.80;;;9.60;91.00;;;;;;4990641;28;20454;-77
2021/12/01 09:07:20;;;;;;;2.37;0.70;;;9.60;91.30;;;;;;5003535;28;20442;-77
2021/12/01 09:10:17;;;;;;;1.50;0.77;;;9.60;91.50;;;;;;4993390;28;20517;-77
2021/12/01 09:12:48;;;;;;;2.13;0.90;;;9.60;91.60;;;;;;5007464;28;21035;-78
2021/12/01 09:15:20;;;;;;;2.03;0.50;;;9.60;92.00;;;;;;4991832;28;20923;-77
2021/12/01 09:18:00;;;;;;;1.03;0.57;;;9.60;92.10;;;;;;4995414;28;20426;-78
2021/12/01 09:21:15;;;;;;;1.77;0.60;;;9.50;92.30;;;;;;4995938;28;20544;-78
2021/12/01 09:24:39;;;;;;;1.60;0.80;;;9.50;92.40;;;;;;4995749;28;20501;-78
2021/12/01 09:27:35;;;;;;;2.07;1.37;;;9.50;92.50;;;;;;4979828;28;20454;-78
2021/12/01 09:30:40;;;;;;;;;;;;;;;;;;;;;
2021/12/01 09:40:22;;;;;;;1.50;0.80;;;9.70;93.00;;;;;;4990395;28;20415;-78
2021/12/01 09:44:00;;;;;;;3.60;0.87;;;9.70;93.10;;;;;;4903690;29;20465;-78
2021/12/01 09:47:08;;;;;;;;;;;;;;;;;;;;;
2021/12/01 09:54:00;;;;;;;;;;;;;;;;;;;;;
2021/12/01 09:57:13;;;;;;;2.40;1.20;;;9.70;94.50;;;;;;4995855;28;20867;-78
2021/12/01 10:01:20;;;;;;;2.00;0.90;;;9.80;93.90;;;;;;4994790;28;20721;-78
2021/12/01 10:04:17;;;;;;;3.07;1.03;;;9.80;94.10;;;;;;4996433;28;20457;-77
2021/12/01 10:06:56;;;;;;;2.40;1.00;;;9.80;94.20;;;;;;4978164;28;20435;-77
2021/12/01 10:10:24;;;;;;;3.40;1.43;;;9.90;94.20;;;;;;4995027;28;20407;-77
2021/12/01 10:13:43;;;;;;;;;;;;;;;;;;;;;
2021/12/01 10:16:45;;;;;;;2.37;0.70;;;9.90;94.20;;;;;;4982145;28;20458;-78
2021/12/01 10:19:36;;;;;;;1.97;1.00;;;9.90;93.90;;;;;;4977260;28;20411;-79
2021/12/01 10:22:51;;;;;;;3.40;0.60;;;9.90;93.80;;;;;;4982237;28;20767;-78
2021/12/01 10:26:20;;;;;;;1.63;1.30;;;9.90;93.80;;;;;;4992010;28;20426;-79
2021/12/01 10:29:35;;;;;;;2.33;0.77;;;9.90;93.60;;;;;;4955665;28;20403;-77
2021/12/01 10:36:01;;;;;;;1.00;0.50;;;9.90;93.70;;;;;;4995218;28;20442;-81
2021/12/01 10:38:45;;;;;;;1.83;0.60;;;9.90;93.60;;;;;;4995841;28;20534;-78
2021/12/01 10:41:58;;;;;;;1.50;0.90;;;9.90;93.30;;;;;;4995257;28;20506;-78
2021/12/01 10:45:06;;;;;;;1.30;0.50;;;9.90;93.20;;;;;;4995315;28;20450;-80
2021/12/01 10:48:14;;;;;;;3.07;2.50;;;9.90;93.30;;;;;;4996253;28;20814;-78
2021/12/01 10:51:43;;;;;;;1.20;0.50;;;10.00;92.80;;;;;;4994734;28;20709;-77
2021/12/01 10:54:26;;;;;;;0.73;0.50;;;10.00;92.60;;;;;;4977250;28;20442;-78
2021/12/01 10:57:32;;;;;;;1.83;0.77;;;10.00;92.60;;;;;;4994601;28;20573;-79
2021/12/01 11:00:47;;;;;;;3.77;1.57;;;10.10;92.60;;;;;;4995257;28;20418;-78
2021/12/01 11:03:51;;;;;;;1.10;0.60;;;10.10;92.40;;;;;;4994940;28;20613;-79
2021/12/01 11:06:40;;;;;;;2.53;0.80;;;10.10;92.20;;;;;;4994670;28;20860;-78
2021/12/01 11:09:25;;;;;;;2.47;0.90;;;10.20;92.50;;;;;;4975792;28;20415;-79
2021/12/01 11:12:55;;;;;;;4.73;1.53;;;10.20;92.20;;;;;;4979127;28;20926;-78
2021/12/01 11:15:58;;;;;;;0.90;0.60;;;10.30;92.20;;;;;;4968006;28;20547;-79
2021/12/01 11:18:55;;;;;;;1.50;0.70;;;10.30;92.10;;;;;;4901681;29;20615;-78
2021/12/01 11:21:47;;;;;;;1.30;0.80;;;10.30;92.30;;;;;;4976729;28;20458;-78
2021/12/01 11:25:07;;;;;;;1.10;0.60;;;10.30;92.30;;;;;;4993013;28;20454;-77
2021/12/01 11:28:02;;;;;;;1.30;0.70;;;10.30;92.40;;;;;;4991317;28;20443;-78
2021/12/01 11:30:40;;;;;;;2.10;1.03;;;10.40;92.70;;;;;;4992634;28;20411;-78
2021/12/01 11:33:20;;;;;;;4.07;0.83;;;10.40;92.50;;;;;;4992392;28;20403;-78
2021/12/01 11:36:35;;;;;;;4.50;2.90;;;10.50;92.40;;;;;;4992378;28;20427;-77
2021/12/01 11:39:49;;;;;;;1.37;0.70;;;10.50;92.30;;;;;;4892871;28;20431;-78
2021/12/01 11:42:24;;;;;;;5.80;0.97;;;10.60;92.50;;;;;;4977007;28;20414;-79
2021/12/01 11:44:54;;;;;;;1.90;0.73;;;10.50;93.30;;;;;;4992609;28;20485;-78
2021/12/01 11:47:33;;;;;;;1.13;0.70;;;10.40;94.20;;;;;;4991664;28;20451;-78
2021/12/01 11:50:11;;;;;;;0.93;0.57;;;10.40;94.60;;;;;;4992007;28;20438;-77
2021/12/01 11:53:13;;;;;;;;;;;;;;;;;;;;;
2021/12/01 11:56:56;;;;;;;0.93;0.60;;;10.30;95.40;;;;;;4993717;28;20434;-78
2021/12/01 11:59:28;;;;;;;1.83;1.00;;;10.20;96.10;;;;;;4980544;28;20518;-78
2021/12/01 12:02:36;;;;;;;1.73;0.70;;;10.10;96.60;;;;;;4979865;28;20415;-79
2021/12/01 12:05:28;;;;;;;1.47;0.50;;;10.10;97.30;;;;;;4996124;28;20848;-79
2021/12/01 12:08:56;;;;;;;4.10;2.57;;;10.00;97.40;;;;;;4994615;28;20945;-78
2021/12/01 12:12:10;;;;;;;5.33;3.77;;;10.00;97.60;;;;;;4976791;28;20934;-78
2021/12/01 12:15:00;;;;;;;2.53;0.87;;;10.00;97.80;;;;;;4975765;28;20434;-77
2021/12/01 12:17:48;;;;;;;1.80;1.10;;;9.90;98.70;;;;;;4980795;23;20519;-78
2021/12/01 12:20:39;;;;;;;3.20;0.83;;;9.90;99.00;;;;;;4957593;28;20419;-79
2021/12/01 12:24:03;;;;;;;1.60;0.70;;;9.90;98.70;;;;;;4958100;28;20412;-78
2021/12/01 12:30:42;;;;;;;1.57;1.07;;;9.90;97.00;;;;;;5025776;26;20931;-78
2021/12/01 12:33:37;;;;;;;1.90;1.00;;;9.90;97.20;;;;;;4936661;29;20420;-79
2021/12/01 12:36:20;;;;;;;1.77;0.90;;;9.80;96.60;;;;;;5012946;28;20487;-78
2021/12/01 12:39:39;;;;;;;3.73;1.80;;;9.80;96.70;;;;;;5017386;28;20914;-81
2021/12/01 12:42:13;;;;;;;4.20;2.10;;;9.70;96.70;;;;;;5018068;23;20496;-74
2021/12/01 12:44:46;;;;;;;3.87;2.20;;;9.60;96.90;;;;;;5012306;28;20461;-74
2021/12/01 12:47:22;;;;;;;6.23;2.93;;;9.60;96.90;;;;;;5011290;28;20509;-72
2021/12/01 12:50:06;;;;;;;12.73;2.93;;;9.70;97.00;;;;;;5012828;28;20407;-72
2021/12/01 12:52:35;;;;;;;34.23;19.23;;;9.60;97.10;;;;;;5014630;28;20537;-72
2021/12/01 12:55:03;;;;;;;5.33;3.67;;;9.60;97.30;;;;;;5016212;28;20463;-72
2021/12/01 12:58:02;;;;;;;7.20;4.57;;;9.60;97.60;;;;;;5016085;28;20456;-72
2021/12/01 13:00:45;;;;;;;8.63;3.23;;;9.60;97.70;;;;;;5015920;28;20410;-72
2021/12/01 13:03:19;;;;;;;9.27;5.87;;;9.50;97.90;;;;;;5021603;28;20410;-74
2021/12/01 13:05:45;;;;;;;7.83;4.70;;;9.50;98.10;;;;;;5005278;28;20943;-72
2021/12/01 13:08:37;;;;;;;6.80;4.70;;;9.50;98.00;;;;;;4993333;28;20433;-71
2021/12/01 13:11:12;;;;;;;7.97;2.93;;;9.50;97.80;;;;;;4993991;28;20482;-73
2021/12/01 13:13:47;;;;;;;5.47;3.93;;;9.40;97.80;;;;;;4995915;28;20471;-72
2021/12/01 13:16:18;;;;;;;7.67;2.70;;;9.40;97.80;;;;;;4995221;28;20530;-72
2021/12/01 13:18:45;;;;;;;10.73;6.23;;;9.30;97.70;;;;;;4995035;28;20537;-74
2021/12/01 13:21:13;;;;;;;10.93;3.47;;;9.30;97.70;;;;;;4994056;28;20430;-72
2021/12/01 13:23:46;;;;;;;4.60;3.00;;;9.30;97.70;;;;;;5013502;28;20465;-72
2021/12/01 13:26:16;;;;;;;3.13;2.23;;;9.30;97.60;;;;;;5000017;28;20435;-74
2021/12/01 13:28:55;;;;;;;7.67;2.93;;;9.20;97.20;;;;;;5001780;28;20470;-72
2021/12/01 13:31:26;;;;;;;7.47;3.27;;;9.20;97.20;;;;;;5001168;28;20434;-72
2021/12/01 13:33:59;;;;;;;4.67;2.33;;;9.30;97.70;;;;;;5002911;28;20785;-73
2021/12/01 13:36:27;;;;;;;3.90;2.20;;;9.30;97.20;;;;;;5002476;28;20473;-71
2021/12/01 13:39:20;;;;;;;3.80;2.13;;;9.40;96.90;;;;;;4999515;28;20407;-73
2021/12/01 13:41:49;;;;;;;3.30;1.37;;;9.40;96.20;;;;;;4986705;28;20458;-72
2021/12/01 13:44:34;;;;;;;3.10;1.20;;;9.50;95.90;;;;;;4995264;28;20447;-73
2021/12/01 13:47:13;;;;;;;3.10;1.10;;;9.50;95.70;;;;;;4997485;28;20430;-73
2021/12/01 13:49:39;;;;;;;7.47;1.93;;;9.50;95.30;;;;;;4995671;28;21015;-71
2021/12/01 13:52:05;;;;;;;3.33;1.90;;;9.50;95.00;;;;;;4995472;28;20518;-74
2021/12/01 13:54:31;;;;;;;6.37;2.00;;;9.50;95.20;;;;;;4995227;28;20374;-73
2021/12/01 13:57:03;;;;;;;5.13;2.10;;;9.50;94.90;;;;;;4995175;28;20423;-73
2021/12/01 13:59:52;;;;;;;4.90;2.33;;;9.40;94.80;;;;;;4994666;28;20943;-75
2021/12/01 14:02:27;;;;;;;4.00;1.80;;;9.40;94.70;;;;;;4995897;28;20538;-73
2021/12/01 14:04:55;;;;;;;7.07;1.57;;;9.40;94.40;;;;;;4995043;28;20473;-73
2021/12/01 14:07:25;;;;;;;2.57;1.20;;;9.30;94.40;;;;;;4996242;28;20418;-73
2021/12/01 14:09:56;;;;;;;3.33;1.03;;;9.40;94.40;;;;;;4994870;28;20816;-73
2021/12/01 14:12:26;;;;;;;2.27;1.33;;;9.30;93.90;;;;;;4997502;28;20489;-74
2021/12/01 14:14:52;;;;;;;2.67;1.10;;;9.30;94.10;;;;;;4999720;28;20760;-72
2021/12/01 14:17:18;;;;;;;3.93;1.33;;;9.20;93.10;;;;;;4995421;28;20514;-72
2021/12/01 14:19:44;;;;;;;3.00;1.47;;;9.20;93.60;;;;;;4996756;28;20179;-71
2021/12/01 14:22:15;;;;;;;7.80;1.00;;;9.20;93.50;;;;;;4994336;28;20450;-74
2021/12/01 14:24:55;;;;;;;7.03;1.67;;;9.10;93.40;;;;;;4997840;28;20612;-75